Time;durP1;ratioP1;P1;durP2;ratioP2;P2;SDS_P1;SDS_P2;PMS_P1;PMS_P2;Temp;Humidity;BMP_temperature;BMP_pressure;BME280_temperature;BME280_humidity;BME280_pressure;Samples;Min_cycle;Max_cycle;Signal;HPM_P1;HPM_P2
2022/10/09 00:00:47;;;;;;;11.88;3.15;;;8.50;99.90;;;;;;5084655;28;20121;-63
2022/10/09 00:03:14;;;;;;;7.40;3.70;;;8.60;99.90;;;;;;5058203;28;20040;-63
2022/10/09 00:05:40;;;;;;;9.25;3.78;;;8.60;99.90;;;;;;5078461;28;20179;-63
2022/10/09 00:08:06;;;;;;;9.32;3.88;;;8.60;99.90;;;;;;5076847;28;20032;-63
2022/10/09 00:10:31;;;;;;;11.82;4.15;;;8.50;99.90;;;;;;5084385;28;20040;-63
2022/10/09 00:12:57;;;;;;;10.05;3.67;;;8.50;99.90;;;;;;5080722;28;20474;-64
2022/10/09 00:15:23;;;;;;;9.60;3.63;;;8.50;99.90;;;;;;5085377;28;20041;-63
2022/10/09 00:17:48;;;;;;;12.32;4.10;;;8.50;99.90;;;;;;5068556;28;20036;-64
2022/10/09 00:20:14;;;;;;;9.95;4.28;;;8.50;99.90;;;;;;5064058;28;20176;-63
2022/10/09 00:22:42;;;;;;;12.32;4.35;;;8.40;99.90;;;;;;5086703;28;20040;-62
2022/10/09 00:25:08;;;;;;;12.43;4.70;;;8.40;99.90;;;;;;5068939;28;20048;-63
2022/10/09 00:27:33;;;;;;;12.82;5.55;;;8.40;99.90;;;;;;5080664;28;20062;-63
2022/10/09 00:29:59;;;;;;;11.95;4.88;;;8.50;99.90;;;;;;5090878;28;20071;-63
2022/10/09 00:32:25;;;;;;;11.73;4.57;;;8.40;99.90;;;;;;5069817;28;20038;-62
2022/10/09 00:34:50;;;;;;;9.88;4.40;;;8.50;99.90;;;;;;5070081;28;20636;-63
2022/10/09 00:37:16;;;;;;;13.93;4.85;;;8.50;99.90;;;;;;5090179;28;20182;-62
2022/10/09 00:39:42;;;;;;;10.07;4.28;;;8.50;99.90;;;;;;5087889;28;20031;-62
2022/10/09 00:42:10;;;;;;;9.40;4.30;;;8.40;99.90;;;;;;5084863;28;20049;-62
2022/10/09 00:44:59;;;;;;;11.10;4.53;;;8.40;99.90;;;;;;5089046;28;20036;-63
2022/10/09 00:47:28;;;;;;;7.95;4.63;;;8.40;99.90;;;;;;5062069;28;20037;-62
2022/10/09 00:49:58;;;;;;;12.10;4.43;;;8.40;99.90;;;;;;5070045;28;20450;-63
2022/10/09 00:52:25;;;;;;;13.18;4.82;;;8.40;99.90;;;;;;5088054;28;20509;-63
2022/10/09 00:54:52;;;;;;;13.05;4.45;;;8.40;99.90;;;;;;5069772;28;20081;-63
2022/10/09 00:57:18;;;;;;;11.30;4.20;;;8.30;99.90;;;;;;5085101;28;20048;-64
2022/10/09 00:59:44;;;;;;;11.82;4.90;;;8.30;99.90;;;;;;5068765;28;20071;-63
2022/10/09 01:02:10;;;;;;;9.45;4.72;;;8.40;99.90;;;;;;5086564;28;20416;-63
2022/10/09 01:04:35;;;;;;;10.82;4.47;;;8.30;99.90;;;;;;5085969;28;20098;-63
2022/10/09 01:07:26;;;;;;;11.05;4.40;;;8.30;99.90;;;;;;5079683;28;20058;-63
2022/10/09 01:09:57;;;;;;;13.25;4.40;;;8.30;99.90;;;;;;5080517;28;20062;-63
2022/10/09 01:12:25;;;;;;;11.13;4.40;;;8.30;99.90;;;;;;5061501;28;20040;-63
2022/10/09 01:15:06;;;;;;;11.63;4.55;;;8.20;99.90;;;;;;5054472;28;20044;-63
2022/10/09 01:17:42;;;;;;;8.60;3.75;;;8.20;99.90;;;;;;5087947;28;20115;-62
2022/10/09 01:20:17;;;;;;;7.00;4.00;;;8.10;99.90;;;;;;5062351;28;20076;-63
2022/10/09 01:23:20;;;;;;;10.30;4.22;;;8.10;99.90;;;;;;5067698;28;20054;-63
2022/10/09 01:26:25;;;;;;;11.07;4.45;;;8.10;99.90;;;;;;5080525;28;20113;-63
2022/10/09 01:28:54;;;;;;;11.07;4.40;;;8.00;99.90;;;;;;5062926;28;20044;-63
2022/10/09 01:31:21;;;;;;;10.10;4.05;;;8.00;99.90;;;;;;5044444;28;20036;-63
2022/10/09 01:33:48;;;;;;;9.80;4.20;;;8.00;99.90;;;;;;5067875;28;20048;-62
2022/10/09 01:36:16;;;;;;;9.73;4.45;;;8.00;99.90;;;;;;5081512;28;20188;-63
2022/10/09 01:38:43;;;;;;;12.68;3.97;;;8.00;99.90;;;;;;5082701;28;20044;-62
2022/10/09 01:41:09;;;;;;;13.18;4.97;;;8.00;99.90;;;;;;5085802;28;20036;-63
2022/10/09 01:43:35;;;;;;;12.80;4.50;;;8.00;99.90;;;;;;5082262;28;20040;-63
2022/10/09 01:46:37;;;;;;;10.23;4.60;;;8.00;99.90;;;;;;5087886;28;20028;-63
2022/10/09 01:49:35;;;;;;;9.00;4.65;;;7.90;99.90;;;;;;5004618;28;20088;-63
2022/10/09 01:52:39;;;;;;;10.43;4.28;;;7.90;99.90;;;;;;5048716;28;20036;-63
2022/10/09 01:55:14;;;;;;;10.02;4.75;;;7.80;99.90;;;;;;5055296;28;20047;-62
2022/10/09 01:57:54;;;;;;;14.60;4.78;;;7.80;99.90;;;;;;5066455;28;20048;-63
2022/10/09 02:00:20;;;;;;;9.20;4.73;;;7.70;99.90;;;;;;5061322;28;20080;-62
2022/10/09 02:02:48;;;;;;;9.60;4.43;;;7.70;99.90;;;;;;5087442;28;20048;-63
2022/10/09 02:05:25;;;;;;;8.93;3.88;;;7.70;99.90;;;;;;5067293;28;20079;-63
2022/10/09 02:07:52;;;;;;;7.38;4.03;;;7.70;99.90;;;;;;5053357;28;20040;-63
2022/10/09 02:10:19;;;;;;;7.03;4.18;;;7.60;99.90;;;;;;5089377;28;20044;-63
2022/10/09 02:12:57;;;;;;;9.23;4.13;;;7.60;99.90;;;;;;5083232;28;20076;-62
2022/10/09 02:15:55;;;;;;;8.68;4.05;;;7.60;99.90;;;;;;5085803;28;20157;-63
2022/10/09 02:18:38;;;;;;;8.25;4.30;;;7.60;99.90;;;;;;5015689;28;20081;-63
2022/10/09 02:21:33;;;;;;;12.52;5.15;;;7.60;99.90;;;;;;5088203;28;20169;-63
2022/10/09 02:24:00;;;;;;;10.20;4.95;;;7.60;99.90;;;;;;5064100;28;20056;-62
2022/10/09 02:26:26;;;;;;;11.35;4.97;;;7.50;99.90;;;;;;5089486;28;20431;-63
2022/10/09 02:28:51;;;;;;;8.60;4.65;;;7.50;99.90;;;;;;5082353;28;20036;-64
2022/10/09 02:31:29;;;;;;;10.32;4.85;;;7.60;99.90;;;;;;5085217;28;20109;-63
2022/10/09 02:33:57;;;;;;;14.30;6.10;;;7.60;99.90;;;;;;5068123;28;20043;-63
2022/10/09 02:36:23;;;;;;;15.50;5.72;;;7.70;99.90;;;;;;5084532;28;20503;-62
2022/10/09 02:38:48;;;;;;;12.25;5.75;;;7.70;99.90;;;;;;5071501;28;20040;-62
2022/10/09 02:41:14;;;;;;;9.73;5.15;;;7.70;99.90;;;;;;5087968;28;20118;-63
2022/10/09 02:43:39;;;;;;;14.52;5.68;;;7.60;99.90;;;;;;5069266;28;20040;-63
2022/10/09 02:46:05;;;;;;;14.40;6.07;;;7.60;99.90;;;;;;5084631;28;20050;-63
2022/10/09 02:48:30;;;;;;;15.85;5.93;;;7.60;99.90;;;;;;5055334;28;20390;-63
2022/10/09 02:50:56;;;;;;;11.30;5.63;;;7.60;99.90;;;;;;5089599;28;20040;-63
2022/10/09 02:53:21;;;;;;;11.20;5.95;;;7.60;99.90;;;;;;5069345;28;20044;-63
2022/10/09 02:55:47;;;;;;;14.20;6.55;;;7.60;99.90;;;;;;5071968;28;20058;-63
2022/10/09 02:58:13;;;;;;;12.02;6.32;;;7.60;99.90;;;;;;5084455;28;20070;-63
2022/10/09 03:00:38;;;;;;;14.52;6.15;;;7.60;99.90;;;;;;5064865;28;20059;-63
2022/10/09 03:03:04;;;;;;;12.65;5.78;;;7.60;99.90;;;;;;5077245;28;20075;-62
2022/10/09 03:05:29;;;;;;;14.13;5.88;;;7.50;99.90;;;;;;5089697;28;20099;-63
2022/10/09 03:07:55;;;;;;;15.32;6.35;;;7.50;99.90;;;;;;5088550;28;20039;-62
2022/10/09 03:10:20;;;;;;;14.35;6.70;;;7.50;99.90;;;;;;5065805;28;20399;-63
2022/10/09 03:12:46;;;;;;;10.52;6.65;;;7.50;99.90;;;;;;5065378;28;20051;-63
2022/10/09 03:15:12;;;;;;;12.38;6.10;;;7.50;99.90;;;;;;5088641;28;20079;-63
2022/10/09 03:17:38;;;;;;;11.98;6.63;;;7.50;99.90;;;;;;5087897;28;20060;-62
2022/10/09 03:20:05;;;;;;;13.18;6.28;;;7.50;99.90;;;;;;5069955;28;20123;-63
2022/10/09 03:22:31;;;;;;;11.13;6.45;;;7.50;99.90;;;;;;5067793;28;20504;-63
2022/10/09 03:24:56;;;;;;;14.88;6.00;;;7.50;99.90;;;;;;5068593;28;20039;-62
2022/10/09 03:27:22;;;;;;;14.77;6.85;;;7.40;99.90;;;;;;5083604;28;20085;-63
2022/10/09 03:29:47;;;;;;;12.75;6.38;;;7.50;99.90;;;;;;5087051;28;20041;-63
2022/10/09 03:32:13;;;;;;;15.77;7.07;;;7.40;99.90;;;;;;5070506;28;20448;-63
2022/10/09 03:34:38;;;;;;;15.02;6.25;;;7.30;99.90;;;;;;5089488;28;20032;-63
2022/10/09 03:37:04;;;;;;;12.70;5.93;;;7.30;99.90;;;;;;5069985;28;20086;-63
2022/10/09 03:39:30;;;;;;;14.23;6.15;;;7.30;99.90;;;;;;5089323;28;20372;-63
2022/10/09 03:41:56;;;;;;;17.45;6.60;;;7.30;99.90;;;;;;5065611;28;20139;-63
2022/10/09 03:44:21;;;;;;;10.75;5.70;;;7.30;99.90;;;;;;5089829;28;20040;-63
2022/10/09 03:46:47;;;;;;;12.13;6.40;;;7.20;99.90;;;;;;5060318;28;20872;-63
2022/10/09 03:49:13;;;;;;;13.35;5.90;;;7.30;99.90;;;;;;5070074;28;20035;-63
2022/10/09 03:51:38;;;;;;;13.18;5.80;;;7.20;99.90;;;;;;5063964;28;20068;-64
2022/10/09 03:54:04;;;;;;;12.88;5.60;;;7.20;99.90;;;;;;5070354;28;20139;-63
2022/10/09 03:56:30;;;;;;;11.27;6.03;;;7.10;99.90;;;;;;5084983;28;20079;-63
2022/10/09 03:58:55;;;;;;;12.63;6.32;;;7.00;99.90;;;;;;5083321;28;20375;-62
2022/10/09 04:01:21;;;;;;;12.77;5.40;;;7.00;99.90;;;;;;5090836;28;20051;-63
2022/10/09 04:03:46;;;;;;;14.65;6.00;;;6.90;99.90;;;;;;5089041;28;20032;-63
2022/10/09 04:06:12;;;;;;;13.95;6.18;;;6.90;99.90;;;;;;5088784;28;20040;-63
2022/10/09 04:08:37;;;;;;;12.93;6.65;;;6.80;99.90;;;;;;5071106;28;20104;-64
2022/10/09 04:11:03;;;;;;;15.77;7.13;;;6.80;99.90;;;;;;5088623;28;20068;-63
2022/10/09 04:13:29;;;;;;;13.48;6.38;;;6.80;99.90;;;;;;5068519;28;20047;-62
2022/10/09 04:15:55;;;;;;;15.27;6.10;;;6.70;99.90;;;;;;5089600;28;20090;-63
2022/10/09 04:18:21;;;;;;;11.10;6.22;;;6.70;99.90;;;;;;5090004;28;20443;-63
2022/10/09 04:20:51;;;;;;;16.42;6.47;;;6.70;99.90;;;;;;5090322;28;20036;-63
2022/10/09 04:23:18;;;;;;;9.32;5.80;;;6.60;99.90;;;;;;5067931;28;20036;-62
2022/10/09 04:25:45;;;;;;;13.77;6.18;;;6.60;99.90;;;;;;5086348;28;20066;-64
2022/10/09 04:28:11;;;;;;;11.43;5.70;;;6.50;99.90;;;;;;5085784;28;20035;-63
2022/10/09 04:30:36;;;;;;;15.30;5.80;;;6.50;99.90;;;;;;5083850;28;20118;-62
2022/10/09 04:33:02;;;;;;;12.77;6.50;;;6.50;99.90;;;;;;5070285;28;20119;-62
2022/10/09 04:35:28;;;;;;;16.20;6.88;;;6.40;99.90;;;;;;5069965;28;20036;-63
2022/10/09 04:37:54;;;;;;;11.70;6.10;;;6.40;99.90;;;;;;5085904;28;20032;-63
2022/10/09 04:40:19;;;;;;;13.63;6.72;;;6.40;99.90;;;;;;5071611;28;20443;-62
2022/10/09 04:42:45;;;;;;;13.23;6.50;;;6.40;99.90;;;;;;5084254;28;20050;-63
2022/10/09 04:45:10;;;;;;;13.23;6.32;;;6.40;99.90;;;;;;5085584;28;20048;-64
2022/10/09 04:47:36;;;;;;;8.40;4.88;;;6.40;99.90;;;;;;5085750;28;20052;-64
2022/10/09 04:50:02;;;;;;;13.13;5.38;;;6.30;99.90;;;;;;5085137;28;20040;-63
2022/10/09 04:52:27;;;;;;;11.00;5.13;;;6.20;99.90;;;;;;5076677;28;20054;-63
2022/10/09 04:54:53;;;;;;;10.00;5.10;;;6.10;99.90;;;;;;5085543;28;20443;-63
2022/10/09 04:57:19;;;;;;;9.80;4.70;;;6.10;99.90;;;;;;5061689;28;21002;-62
2022/10/09 04:59:44;;;;;;;8.88;4.88;;;6.00;99.90;;;;;;5064603;28;20411;-63
2022/10/09 05:02:10;;;;;;;9.55;4.35;;;5.90;99.90;;;;;;5088295;28;20043;-63
2022/10/09 05:04:36;;;;;;;5.90;4.25;;;5.80;99.90;;;;;;5087660;28;20083;-63
2022/10/09 05:07:01;;;;;;;5.20;3.65;;;5.80;99.90;;;;;;5083741;28;20076;-63
2022/10/09 05:09:27;;;;;;;9.38;4.28;;;5.70;99.90;;;;;;5070074;28;20116;-63
2022/10/09 05:11:52;;;;;;;7.05;4.07;;;5.70;99.90;;;;;;5066449;28;20031;-62
2022/10/09 05:14:18;;;;;;;7.07;4.30;;;5.60;99.90;;;;;;5068532;28;20043;-61
2022/10/09 05:16:43;;;;;;;8.05;4.75;;;5.60;99.90;;;;;;5088420;28;20059;-63
2022/10/09 05:19:09;;;;;;;9.30;6.00;;;5.60;99.90;;;;;;5069290;28;20040;-62
2022/10/09 05:21:35;;;;;;;13.02;6.75;;;5.70;99.90;;;;;;5088089;28;20093;-62
2022/10/09 05:24:01;;;;;;;13.25;6.13;;;5.80;99.90;;;;;;5070692;28;20038;-63
2022/10/09 05:26:27;;;;;;;10.50;6.65;;;5.90;99.90;;;;;;5066886;28;20130;-63
2022/10/09 05:28:53;;;;;;;14.18;6.78;;;5.90;99.90;;;;;;5067821;28;20368;-62
2022/10/09 05:31:26;;;;;;;14.70;6.63;;;5.90;99.90;;;;;;5085915;28;20051;-62
2022/10/09 05:33:52;;;;;;;10.30;6.30;;;5.90;99.90;;;;;;5088209;28;20376;-63
2022/10/09 05:36:19;;;;;;;10.77;6.10;;;6.00;99.90;;;;;;5067992;28;20051;-63
2022/10/09 05:38:44;;;;;;;14.45;6.78;;;6.00;99.90;;;;;;5068736;28;20057;-63
2022/10/09 05:41:15;;;;;;;16.38;7.53;;;5.90;99.90;;;;;;5086529;28;20032;-62
2022/10/09 05:43:43;;;;;;;9.52;6.22;;;5.90;99.90;;;;;;5057434;28;20055;-63
2022/10/09 05:46:12;;;;;;;9.93;6.43;;;5.90;99.90;;;;;;5081143;28;20128;-62
2022/10/09 05:48:40;;;;;;;10.30;5.88;;;5.80;99.90;;;;;;5085252;28;20336;-62
2022/10/09 05:51:16;;;;;;;12.27;5.80;;;5.80;99.90;;;;;;5088358;28;20364;-62
2022/10/09 05:53:43;;;;;;;9.25;5.72;;;5.80;99.90;;;;;;5069792;28;20036;-63
2022/10/09 05:56:21;;;;;;;9.88;6.30;;;5.80;99.90;;;;;;5088022;28;20040;-62
2022/10/09 05:58:50;;;;;;;11.05;5.85;;;5.80;99.90;;;;;;5084741;28;20162;-63
2022/10/09 06:01:16;;;;;;;11.13;6.30;;;5.70;99.90;;;;;;5086136;28;20028;-63
2022/10/09 06:03:46;;;;;;;10.32;6.20;;;5.70;99.90;;;;;;5087038;28;20112;-62
2022/10/09 06:06:11;;;;;;;13.85;6.72;;;5.60;99.90;;;;;;5080887;28;20132;-62
2022/10/09 06:08:37;;;;;;;13.70;6.22;;;5.60;99.90;;;;;;5071108;28;20272;-64
2022/10/09 06:11:15;;;;;;;11.05;6.22;;;5.60;99.90;;;;;;5087688;28;20071;-62
2022/10/09 06:13:41;;;;;;;14.25;6.22;;;5.50;99.90;;;;;;5037756;28;20379;-62
2022/10/09 06:16:10;;;;;;;11.73;6.18;;;5.50;99.90;;;;;;5082983;28;20033;-62
2022/10/09 06:18:36;;;;;;;9.40;5.65;;;5.50;99.90;;;;;;5087925;28;20074;-62
2022/10/09 06:21:02;;;;;;;15.45;6.63;;;5.50;99.90;;;;;;5083344;28;20458;-62
2022/10/09 06:23:28;;;;;;;15.80;6.72;;;5.50;99.90;;;;;;5072876;28;20044;-62
2022/10/09 06:25:59;;;;;;;8.43;5.75;;;5.60;99.90;;;;;;5064174;28;20046;-63
2022/10/09 06:28:27;;;;;;;11.80;6.07;;;5.60;99.90;;;;;;5076573;28;20043;-63
2022/10/09 06:30:53;;;;;;;10.43;6.28;;;5.60;99.90;;;;;;5050469;28;20125;-63
2022/10/09 06:33:18;;;;;;;10.52;6.78;;;5.70;99.90;;;;;;5068532;28;20404;-62
2022/10/09 06:35:44;;;;;;;15.68;7.13;;;5.70;99.90;;;;;;5087163;28;20043;-63
2022/10/09 06:38:10;;;;;;;13.05;6.78;;;5.80;99.90;;;;;;5086363;28;20035;-63
2022/10/09 06:40:36;;;;;;;11.55;7.15;;;5.80;99.90;;;;;;5083652;28;20081;-62
2022/10/09 06:43:03;;;;;;;12.35;7.10;;;5.90;99.90;;;;;;5072384;28;20040;-63
2022/10/09 06:45:29;;;;;;;11.90;7.90;;;6.00;99.90;;;;;;5061396;28;20052;-62
2022/10/09 06:47:55;;;;;;;17.17;8.27;;;6.00;99.90;;;;;;5084539;28;20044;-63
2022/10/09 06:50:20;;;;;;;14.75;8.13;;;6.20;99.90;;;;;;5083088;28;20032;-62
2022/10/09 06:52:46;;;;;;;15.05;7.68;;;6.30;99.90;;;;;;5084086;28;20039;-64
2022/10/09 06:55:11;;;;;;;13.93;8.25;;;6.50;99.90;;;;;;5088083;28;20107;-63
2022/10/09 06:57:37;;;;;;;11.63;7.93;;;6.70;99.90;;;;;;5081496;28;20101;-63
2022/10/09 07:00:03;;;;;;;11.68;7.93;;;7.00;99.90;;;;;;5070704;28;20044;-63
2022/10/09 07:02:31;;;;;;;12.60;7.38;;;7.40;99.90;;;;;;5062299;28;20065;-63
2022/10/09 07:04:57;;;;;;;9.52;7.15;;;7.70;99.90;;;;;;5080612;28;20036;-63
2022/10/09 07:07:22;;;;;;;10.98;6.75;;;7.90;99.90;;;;;;5062602;28;20043;-63
2022/10/09 07:09:48;;;;;;;10.68;7.00;;;8.20;99.90;;;;;;5064364;28;20048;-64
2022/10/09 07:12:13;;;;;;;9.93;6.88;;;8.50;99.90;;;;;;5065555;28;20399;-64
2022/10/09 07:14:39;;;;;;;9.50;6.68;;;8.70;99.90;;;;;;5064567;28;20387;-63
2022/10/09 07:17:04;;;;;;;11.25;6.30;;;8.90;99.90;;;;;;5072605;28;20518;-64
2022/10/09 07:19:30;;;;;;;13.10;7.32;;;9.00;99.90;;;;;;5082124;28;20052;-64
2022/10/09 07:21:56;;;;;;;11.55;6.80;;;9.00;99.90;;;;;;5061198;28;20077;-64
2022/10/09 07:24:23;;;;;;;13.55;6.75;;;9.00;99.90;;;;;;5067539;28;20036;-64
2022/10/09 07:26:50;;;;;;;9.15;6.35;;;9.00;99.90;;;;;;5086393;28;20101;-64
2022/10/09 07:29:17;;;;;;;12.88;6.53;;;9.20;99.90;;;;;;5088353;28;20109;-63
2022/10/09 07:31:43;;;;;;;9.15;6.43;;;9.20;99.90;;;;;;5091260;28;20081;-63
2022/10/09 07:34:09;;;;;;;10.73;5.90;;;9.30;99.90;;;;;;5070992;28;20428;-63
2022/10/09 07:36:35;;;;;;;12.55;6.78;;;9.50;99.90;;;;;;5087142;28;20130;-64
2022/10/09 07:39:01;;;;;;;9.25;5.63;;;9.80;99.90;;;;;;5071417;28;20072;-63
2022/10/09 07:41:28;;;;;;;9.70;6.22;;;10.10;99.90;;;;;;5088439;28;20063;-64
2022/10/09 07:43:54;;;;;;;9.68;6.03;;;10.40;99.90;;;;;;5066584;28;20222;-64
2022/10/09 07:46:21;;;;;;;10.77;6.40;;;10.40;99.90;;;;;;5067283;28;20146;-64
2022/10/09 07:48:47;;;;;;;10.10;6.03;;;10.50;99.90;;;;;;5071467;28;20066;-63
2022/10/09 07:51:15;;;;;;;12.05;6.15;;;10.40;99.90;;;;;;5090096;28;20032;-63
2022/10/09 07:53:40;;;;;;;10.25;6.10;;;10.40;99.90;;;;;;5069398;28;20054;-63
2022/10/09 07:56:11;;;;;;;9.80;6.53;;;10.40;99.90;;;;;;5068405;28;20229;-63
2022/10/09 07:58:37;;;;;;;9.50;5.88;;;10.60;99.90;;;;;;5070049;28;20055;-63
2022/10/09 08:01:05;;;;;;;8.80;6.60;;;10.70;99.90;;;;;;5087950;28;20032;-64
2022/10/09 08:03:30;;;;;;;10.57;5.97;;;10.80;99.90;;;;;;5085331;28;20080;-64
2022/10/09 08:05:56;;;;;;;10.13;6.47;;;10.70;99.90;;;;;;5083491;28;20072;-63
2022/10/09 08:08:22;;;;;;;11.68;6.40;;;10.70;99.90;;;;;;5084925;28;20031;-63
2022/10/09 08:10:47;;;;;;;11.52;6.25;;;10.70;99.90;;;;;;5088243;28;20048;-64
2022/10/09 08:13:13;;;;;;;11.82;6.53;;;10.70;99.90;;;;;;5084108;28;20040;-63
2022/10/09 08:15:41;;;;;;;14.48;7.00;;;10.70;99.90;;;;;;5086622;28;20036;-63
2022/10/09 08:18:07;;;;;;;9.13;6.20;;;10.80;99.90;;;;;;5069899;28;20352;-63
2022/10/09 08:20:32;;;;;;;9.73;6.15;;;10.80;99.90;;;;;;5086042;28;20058;-63
2022/10/09 08:22:58;;;;;;;12.20;6.45;;;11.00;99.90;;;;;;5065653;28;20877;-63
2022/10/09 08:25:23;;;;;;;13.82;7.35;;;10.80;99.90;;;;;;5088847;28;20502;-63
2022/10/09 08:27:51;;;;;;;10.48;6.38;;;10.90;99.90;;;;;;5077772;28;20051;-64
2022/10/09 08:30:17;;;;;;;13.45;6.72;;;11.00;99.90;;;;;;5088002;28;20461;-62
2022/10/09 08:32:43;;;;;;;10.50;6.43;;;11.10;99.90;;;;;;5060230;28;20110;-63
2022/10/09 08:35:08;;;;;;;11.95;6.00;;;11.20;99.90;;;;;;5064055;28;20398;-63
2022/10/09 08:37:34;;;;;;;9.45;6.03;;;11.30;99.90;;;;;;5065945;28;20451;-63
2022/10/09 08:40:00;;;;;;;15.65;7.07;;;11.40;99.90;;;;;;5089496;28;20032;-63
2022/10/09 08:42:51;;;;;;;11.65;5.60;;;11.40;99.90;;;;;;5082673;28;20392;-64
2022/10/09 08:45:17;;;;;;;10.82;6.32;;;11.40;99.90;;;;;;5052649;28;20088;-63
2022/10/09 08:47:55;;;;;;;11.10;5.97;;;11.60;99.90;;;;;;5084035;28;20032;-64
2022/10/09 08:50:28;;;;;;;10.95;5.40;;;11.70;99.90;;;;;;5064729;28;20389;-62
2022/10/09 08:53:04;;;;;;;10.85;5.97;;;11.80;99.90;;;;;;5065093;28;20043;-63
2022/10/09 08:56:01;;;;;;;10.93;5.40;;;11.80;99.90;;;;;;5065743;28;20051;-63
2022/10/09 08:58:33;;;;;;;9.95;5.57;;;11.80;99.90;;;;;;5078198;28;20073;-63
2022/10/09 09:01:22;;;;;;;12.52;5.05;;;12.00;99.90;;;;;;5067579;28;20063;-63
2022/10/09 09:04:28;;;;;;;15.00;5.63;;;12.00;99.90;;;;;;5077826;28;20110;-64
2022/10/09 09:07:21;;;;;;;9.63;4.72;;;12.10;99.90;;;;;;5036498;28;20484;-63
2022/10/09 09:10:21;;;;;;;11.40;5.00;;;12.10;99.90;;;;;;5065596;28;20052;-63
2022/10/09 09:12:55;;;;;;;9.20;4.88;;;12.10;99.90;;;;;;5072591;28;20492;-64
2022/10/09 09:15:24;;;;;;;8.43;4.80;;;12.10;99.90;;;;;;5086721;28;20086;-63
2022/10/09 09:17:57;;;;;;;9.80;4.57;;;12.30;99.90;;;;;;5082894;28;20032;-64
2022/10/09 09:20:32;;;;;;;14.25;5.03;;;12.40;99.90;;;;;;5066792;28;20055;-63
2022/10/09 09:23:00;;;;;;;9.45;4.80;;;12.50;99.90;;;;;;5071932;28;20483;-64
2022/10/09 09:25:32;;;;;;;10.50;5.10;;;12.50;99.90;;;;;;5079018;28;20080;-64
2022/10/09 09:28:08;;;;;;;11.82;5.13;;;12.50;99.90;;;;;;5075943;28;20071;-63
2022/10/09 09:30:42;;;;;;;10.05;4.97;;;12.60;99.90;;;;;;5068478;28;20086;-63
2022/10/09 09:33:10;;;;;;;12.48;5.32;;;12.50;99.90;;;;;;5074917;28;20508;-64
2022/10/09 09:35:51;;;;;;;11.43;5.22;;;12.60;99.90;;;;;;5084132;28;20043;-64
2022/10/09 09:38:17;;;;;;;9.77;5.20;;;12.70;99.90;;;;;;5079509;28;20039;-64
2022/10/09 09:40:43;;;;;;;8.77;5.50;;;12.80;99.90;;;;;;5077977;28;20041;-64
2022/10/09 09:43:22;;;;;;;12.07;5.20;;;12.80;99.90;;;;;;5074036;28;20153;-65
2022/10/09 09:45:54;;;;;;;10.77;4.60;;;12.80;99.90;;;;;;5084246;28;20369;-63
2022/10/09 09:48:39;;;;;;;15.63;4.63;;;12.90;99.90;;;;;;5064588;28;20521;-63
2022/10/09 09:51:13;;;;;;;10.93;4.68;;;13.10;99.90;;;;;;5065018;28;20090;-63
2022/10/09 09:53:45;;;;;;;10.13;4.60;;;13.10;99.90;;;;;;5049954;28;20033;-64
2022/10/09 09:56:11;;;;;;;12.93;4.53;;;13.10;99.90;;;;;;5060256;28;20048;-63
2022/10/09 09:58:49;;;;;;;10.13;4.38;;;13.20;99.90;;;;;;5080042;28;20102;-63
2022/10/09 10:01:26;;;;;;;8.10;4.32;;;13.30;99.90;;;;;;5059253;28;20031;-64
2022/10/09 10:03:55;;;;;;;16.50;4.97;;;13.30;99.90;;;;;;5080285;28;20086;-66
2022/10/09 10:06:32;;;;;;;10.80;4.38;;;13.50;99.90;;;;;;5075855;28;20028;-63
2022/10/09 10:09:11;;;;;;;9.18;3.78;;;13.40;99.90;;;;;;5049882;28;20048;-63
2022/10/09 10:11:46;;;;;;;8.93;3.55;;;13.40;99.90;;;;;;5061141;28;20812;-66
2022/10/09 10:14:14;;;;;;;8.77;3.65;;;13.50;99.90;;;;;;5082341;28;20081;-63
2022/10/09 10:16:41;;;;;;;14.45;3.60;;;13.50;99.90;;;;;;5082983;28;20379;-64
2022/10/09 10:19:19;;;;;;;8.93;3.22;;;13.60;99.90;;;;;;5065378;28;20049;-63
2022/10/09 10:22:00;;;;;;;9.57;3.25;;;13.70;99.90;;;;;;5079251;28;20037;-64
2022/10/09 10:24:38;;;;;;;9.30;3.40;;;13.80;99.90;;;;;;5081481;28;20501;-64
2022/10/09 10:27:07;;;;;;;6.78;2.90;;;13.80;99.90;;;;;;5078440;28;20434;-65
2022/10/09 10:29:39;;;;;;;8.02;2.63;;;13.90;99.90;;;;;;5065053;28;20077;-64
2022/10/09 10:32:14;;;;;;;8.52;3.47;;;14.10;99.90;;;;;;5065106;28;20036;-64
2022/10/09 10:34:46;;;;;;;5.57;2.35;;;14.10;99.90;;;;;;5081357;28;20290;-63
2022/10/09 10:37:12;;;;;;;13.93;3.10;;;14.20;99.90;;;;;;5084306;28;20028;-63
2022/10/09 10:39:59;;;;;;;5.28;2.60;;;14.30;99.90;;;;;;5084566;28;20510;-64
2022/10/09 10:42:35;;;;;;;9.13;2.53;;;14.20;99.90;;;;;;5064325;28;20070;-63
2022/10/09 10:45:09;;;;;;;10.10;2.38;;;14.30;99.90;;;;;;5081202;28;20430;-63
2022/10/09 10:47:40;;;;;;;7.25;2.10;;;14.30;99.90;;;;;;5088935;28;20127;-63
2022/10/09 10:50:13;;;;;;;7.35;2.13;;;14.30;99.90;;;;;;5092432;28;20123;-63
2022/10/09 10:53:00;;;;;;;7.53;2.50;;;14.30;99.90;;;;;;5089097;28;20541;-64
2022/10/09 10:55:47;;;;;;;6.13;2.05;;;14.20;99.90;;;;;;5090104;28;20032;-64
2022/10/09 10:58:23;;;;;;;9.82;2.90;;;14.10;99.90;;;;;;5086864;28;20599;-63
2022/10/09 11:01:13;;;;;;;7.13;2.17;;;14.20;99.90;;;;;;5084397;28;20111;-64
2022/10/09 11:04:08;;;;;;;6.57;1.80;;;14.10;99.90;;;;;;5088181;28;20109;-64
2022/10/09 11:07:00;;;;;;;6.38;2.00;;;14.20;99.90;;;;;;5089242;28;20040;-64
2022/10/09 11:09:31;;;;;;;7.70;2.25;;;14.30;99.90;;;;;;5087851;28;20040;-64
2022/10/09 11:12:28;;;;;;;7.30;2.22;;;14.40;99.90;;;;;;5074089;28;20246;-64
2022/10/09 11:15:18;;;;;;;5.20;1.73;;;14.50;99.90;;;;;;5086821;28;20028;-65
2022/10/09 11:18:01;;;;;;;6.43;2.30;;;14.60;99.90;;;;;;5090573;28;20444;-65
2022/10/09 11:20:50;;;;;;;3.95;1.83;;;14.70;99.90;;;;;;5072171;28;20043;-64
2022/10/09 11:23:37;;;;;;;5.20;1.75;;;14.60;99.90;;;;;;5069455;28;20525;-64
2022/10/09 11:26:25;;;;;;;6.85;1.83;;;14.60;99.90;;;;;;5086819;28;20561;-64
2022/10/09 11:29:05;;;;;;;5.72;2.00;;;14.80;99.90;;;;;;5073084;28;20055;-63
2022/10/09 11:31:43;;;;;;;6.68;1.92;;;14.90;99.80;;;;;;5069919;28;20043;-64
2022/10/09 11:34:20;;;;;;;6.97;2.55;;;14.90;99.90;;;;;;5079694;28;20036;-64
2022/10/09 11:36:45;;;;;;;5.35;2.25;;;14.90;99.90;;;;;;5075148;28;20109;-65
2022/10/09 11:39:18;;;;;;;8.25;2.40;;;15.00;99.90;;;;;;5073201;28;20051;-65
2022/10/09 11:41:46;;;;;;;5.78;2.20;;;14.90;99.90;;;;;;5057795;28;20127;-65
2022/10/09 11:44:36;;;;;;;7.28;1.80;;;14.90;99.90;;;;;;5089307;28;20039;-63
2022/10/09 11:47:21;;;;;;;4.97;2.00;;;15.00;99.50;;;;;;5088550;28;20115;-63
2022/10/09 11:50:11;;;;;;;4.15;1.70;;;14.90;99.90;;;;;;5072018;28;20045;-64
2022/10/09 11:53:05;;;;;;;7.67;1.70;;;15.00;99.90;;;;;;5082795;28;20127;-64
2022/10/09 11:55:32;;;;;;;7.57;1.92;;;15.00;99.80;;;;;;5071207;28;20333;-62
2022/10/09 11:58:24;;;;;;;7.00;1.73;;;15.00;99.90;;;;;;5081896;28;20032;-64
2022/10/09 12:00:53;;;;;;;5.07;2.10;;;15.00;99.00;;;;;;5089694;28;20067;-64
2022/10/09 12:03:34;;;;;;;4.45;1.95;;;15.00;99.80;;;;;;5070729;28;20371;-65
2022/10/09 12:06:15;;;;;;;5.88;2.22;;;15.10;99.80;;;;;;5087166;28;20032;-63
2022/10/09 12:08:52;;;;;;;8.35;1.98;;;15.20;99.00;;;;;;5063002;28;20364;-64
2022/10/09 12:11:18;;;;;;;5.65;1.60;;;15.20;98.90;;;;;;5082892;28;20413;-65
2022/10/09 12:14:07;;;;;;;5.40;1.60;;;15.30;97.50;;;;;;5066956;28;20040;-65
2022/10/09 12:16:42;;;;;;;4.68;1.55;;;15.30;97.80;;;;;;5089707;28;20051;-63
2022/10/09 12:19:22;;;;;;;6.85;1.80;;;15.20;97.40;;;;;;5071630;28;20056;-65
2022/10/09 12:21:50;;;;;;;;;;;15.30;97.30;;;;;;5086553;28;20036;-64
2022/10/09 12:24:21;;;;;;;7.97;1.75;;;15.30;97.10;;;;;;5069210;28;19930;-65
2022/10/09 12:26:48;;;;;;;5.13;1.42;;;15.30;97.60;;;;;;5065603;28;20119;-65
2022/10/09 12:29:32;;;;;;;4.93;1.73;;;15.30;97.30;;;;;;5060863;28;20875;-66
2022/10/09 12:32:02;;;;;;;9.10;2.35;;;15.40;96.70;;;;;;5077862;28;20304;-64
2022/10/09 12:34:30;;;;;;;;;;;15.40;94.60;;;;;;5076772;28;20040;-65
2022/10/09 12:37:13;;;;;;;4.90;1.88;;;15.50;95.80;;;;;;5084537;28;20490;-66
2022/10/09 12:39:39;;;;;;;4.60;1.10;;;15.70;96.80;;;;;;5094913;28;20052;-65
2022/10/09 12:42:14;;;;;;;5.43;1.80;;;15.70;96.10;;;;;;5078818;28;20032;-62
2022/10/09 12:44:39;;;;;;;6.38;1.55;;;15.60;95.10;;;;;;5084041;28;20455;-65
2022/10/09 12:47:08;;;;;;;5.50;1.40;;;15.60;95.40;;;;;;5087611;28;20043;-63
2022/10/09 12:49:34;;;;;;;6.88;1.52;;;15.60;92.60;;;;;;5080086;28;20380;-65
2022/10/09 12:52:01;;;;;;;3.83;1.50;;;15.60;94.30;;;;;;5084105;28;20119;-64
2022/10/09 12:54:29;;;;;;;4.13;1.30;;;15.90;94.00;;;;;;5086054;28;20027;-63
2022/10/09 12:56:56;;;;;;;4.68;1.42;;;15.90;91.50;;;;;;5083883;28;20264;-64
2022/10/09 12:59:24;;;;;;;3.72;2.03;;;15.80;93.70;;;;;;5087350;28;20058;-66
2022/10/09 13:01:55;;;;;;;4.85;1.80;;;15.50;93.70;;;;;;5078791;28;20040;-65
2022/10/09 13:04:23;;;;;;;;;;;15.30;93.50;;;;;;5090209;28;20123;-64
2022/10/09 13:06:50;;;;;;;6.20;2.33;;;15.30;93.50;;;;;;5070109;28;19931;-65